createdAt,value
2018-06-28T00:00:40.740Z,3.03
2018-06-28T00:03:08.606Z,2.67
2018-06-28T00:05:36.427Z,2.73
2018-06-28T00:08:04.285Z,3.60
2018-06-28T00:10:32.126Z,3.30
2018-06-28T00:13:00.041Z,3.00
2018-06-28T00:15:27.918Z,2.80
2018-06-28T00:17:55.783Z,3.00
2018-06-28T00:20:23.723Z,3.37
2018-06-28T00:22:51.622Z,2.70
2018-06-28T00:25:19.518Z,3.10
2018-06-28T00:27:47.358Z,2.90
2018-06-28T00:30:15.285Z,2.80
2018-06-28T00:32:43.154Z,2.63
2018-06-28T00:35:10.967Z,2.70
2018-06-28T00:37:38.851Z,3.43
2018-06-28T00:40:06.702Z,2.83
2018-06-28T00:42:34.572Z,3.67
2018-06-28T00:45:02.716Z,3.10
2018-06-28T00:47:30.676Z,3.30
2018-06-28T00:49:58.486Z,3.17
2018-06-28T00:52:26.418Z,2.93
2018-06-28T00:54:54.345Z,2.90
2018-06-28T00:57:22.239Z,3.03
2018-06-28T00:59:50.150Z,3.03
2018-06-28T01:02:18.017Z,3.23
2018-06-28T01:04:45.848Z,3.03
2018-06-28T01:07:13.767Z,3.63
2018-06-28T01:09:41.647Z,3.20
2018-06-28T01:12:09.527Z,3.67
2018-06-28T01:14:37.489Z,3.57
2018-06-28T01:17:05.454Z,4.03
2018-06-28T01:19:33.424Z,3.77
2018-06-28T01:22:01.340Z,4.00
2018-06-28T01:24:29.250Z,3.97
2018-06-28T01:26:57.168Z,3.93
2018-06-28T01:29:25.084Z,4.23
2018-06-28T01:31:52.973Z,4.27
2018-06-28T01:34:20.834Z,3.70
2018-06-28T01:36:48.662Z,3.70
2018-06-28T01:39:16.464Z,4.07
2018-06-28T01:41:55.492Z,3.70
2018-06-28T01:44:23.126Z,4.03
2018-06-28T01:46:51.111Z,4.53
2018-06-28T01:49:18.818Z,3.93
2018-06-28T01:51:46.649Z,4.20
2018-06-28T01:54:14.508Z,3.93
2018-06-28T01:56:42.329Z,3.80
2018-06-28T01:59:10.188Z,4.20
2018-06-28T02:01:38.106Z,3.70
2018-06-28T02:04:05.971Z,4.10
2018-06-28T02:06:34.193Z,4.00
2018-06-28T02:09:02.138Z,3.70
2018-06-28T02:11:30.008Z,3.87
2018-06-28T02:13:57.887Z,4.27
2018-06-28T02:16:25.759Z,4.10
2018-06-28T02:18:53.631Z,3.70
2018-06-28T02:21:21.452Z,4.70
2018-06-28T02:23:49.137Z,4.10
2018-06-28T02:26:16.998Z,4.77
2018-06-28T02:28:44.924Z,4.17
2018-06-28T02:31:12.841Z,5.03
2018-06-28T02:33:40.715Z,5.17
2018-06-28T02:36:08.575Z,5.00
2018-06-28T02:38:36.441Z,4.80
2018-06-28T02:41:04.310Z,4.73
2018-06-28T02:43:32.127Z,4.77
2018-06-28T02:45:59.999Z,5.47
2018-06-28T02:48:27.843Z,5.03
2018-06-28T02:50:55.755Z,5.63
2018-06-28T02:53:23.637Z,5.60
2018-06-28T02:55:51.522Z,5.23
2018-06-28T02:58:19.347Z,6.07
2018-06-28T03:00:47.202Z,5.77
2018-06-28T03:03:15.122Z,5.93
2018-06-28T03:05:43.070Z,6.03
2018-06-28T03:08:10.891Z,5.30
2018-06-28T03:10:38.782Z,5.00
2018-06-28T03:13:06.585Z,4.97
2018-06-28T03:15:34.470Z,5.07
2018-06-28T03:18:02.280Z,5.50
2018-06-28T03:20:30.078Z,4.57
2018-06-28T03:22:58.061Z,5.40
2018-06-28T03:25:25.918Z,5.07
2018-06-28T03:27:53.769Z,5.53
2018-06-28T03:30:21.654Z,5.40
2018-06-28T03:32:49.524Z,5.60
2018-06-28T03:35:17.390Z,5.20
2018-06-28T03:37:45.305Z,5.13
2018-06-28T03:40:13.114Z,5.10
2018-06-28T03:42:40.919Z,4.67
2018-06-28T03:45:08.807Z,5.10
2018-06-28T03:47:36.578Z,5.10
2018-06-28T03:50:04.455Z,5.13
2018-06-28T03:52:32.371Z,5.43
2018-06-28T03:55:00.203Z,5.20
2018-06-28T03:57:28.121Z,4.90
2018-06-28T03:59:55.955Z,4.90
2018-06-28T04:02:23.770Z,5.20
2018-06-28T04:04:51.628Z,5.53
2018-06-28T04:07:19.515Z,5.10
2018-06-28T04:09:47.454Z,5.77
2018-06-28T04:12:15.198Z,5.67
2018-06-28T04:14:43.042Z,5.47
2018-06-28T04:17:10.870Z,5.30
2018-06-28T04:19:38.762Z,5.13
2018-06-28T04:22:06.651Z,5.30
2018-06-28T04:24:34.672Z,5.47
2018-06-28T04:27:02.562Z,5.23
2018-06-28T04:29:30.387Z,5.47
2018-06-28T04:31:58.198Z,5.60
2018-06-28T04:34:26.066Z,5.07
2018-06-28T04:36:54.020Z,5.10
2018-06-28T04:39:21.809Z,5.47
2018-06-28T04:41:49.659Z,5.40
2018-06-28T04:44:17.494Z,5.57
2018-06-28T04:46:45.310Z,5.37
2018-06-28T04:49:13.145Z,5.50
2018-06-28T04:51:40.928Z,5.97
2018-06-28T04:54:08.798Z,5.23
2018-06-28T04:56:36.779Z,5.70
2018-06-28T04:59:04.973Z,5.90
2018-06-28T05:01:32.840Z,5.30
2018-06-28T05:04:00.718Z,5.40
2018-06-28T05:06:28.609Z,6.27
2018-06-28T05:08:56.423Z,6.20
2018-06-28T05:11:24.270Z,6.77
2018-06-28T05:13:52.165Z,6.37
2018-06-28T05:16:19.944Z,6.00
2018-06-28T05:18:47.842Z,6.00
2018-06-28T05:21:15.715Z,5.80
2018-06-28T05:23:43.595Z,5.87
2018-06-28T05:26:11.671Z,6.40
2018-06-28T05:28:39.576Z,5.80
2018-06-28T05:31:07.395Z,5.70
2018-06-28T05:33:35.268Z,6.13
2018-06-28T05:36:03.125Z,5.40
2018-06-28T05:38:30.940Z,5.40
2018-06-28T05:40:58.943Z,5.77
2018-06-28T05:43:26.758Z,5.90
2018-06-28T05:45:55.040Z,5.40
2018-06-28T05:48:23.092Z,6.10
2018-06-28T05:50:50.999Z,6.30
2018-06-28T05:53:18.972Z,7.43
2018-06-28T05:55:46.893Z,6.40
2018-06-28T05:58:14.714Z,6.03
2018-06-28T06:00:42.556Z,5.57
2018-06-28T06:03:10.367Z,6.70
2018-06-28T06:05:38.202Z,6.20
2018-06-28T06:08:06.053Z,5.60
2018-06-28T06:10:33.837Z,5.03
2018-06-28T06:13:01.723Z,5.83
2018-06-28T06:15:29.546Z,5.80
2018-06-28T06:17:57.461Z,7.30
2018-06-28T06:20:25.389Z,4.97
2018-06-28T06:22:53.097Z,4.87
2018-06-28T06:25:21.090Z,4.53
2018-06-28T06:27:48.869Z,5.10
2018-06-28T06:30:17.175Z,4.70
2018-06-28T06:32:45.051Z,4.50
2018-06-28T06:35:12.896Z,4.93
2018-06-28T06:37:40.978Z,4.93
2018-06-28T06:40:08.767Z,5.27
2018-06-28T06:42:36.565Z,4.67
2018-06-28T06:45:04.840Z,4.13
2018-06-28T06:47:38.811Z,5.27
2018-06-28T06:50:06.731Z,4.23
2018-06-28T06:52:34.631Z,4.00
2018-06-28T06:55:02.557Z,3.87
2018-06-28T06:57:30.471Z,4.17
2018-06-28T06:59:58.317Z,4.07
2018-06-28T07:02:26.115Z,5.67
2018-06-28T07:04:54.465Z,3.77
2018-06-28T07:07:22.399Z,4.13
2018-06-28T07:09:50.270Z,4.63
2018-06-28T07:12:18.151Z,4.90
2018-06-28T07:14:45.985Z,4.17
2018-06-28T07:17:13.854Z,4.53
2018-06-28T07:19:41.887Z,4.50
2018-06-28T07:22:09.742Z,4.00
2018-06-28T07:24:37.560Z,4.40
2018-06-28T07:27:05.484Z,4.53
2018-06-28T07:29:33.415Z,4.37
2018-06-28T07:32:01.312Z,5.60
2018-06-28T07:34:29.250Z,4.60
2018-06-28T07:36:57.101Z,4.60
2018-06-28T07:39:24.912Z,4.33
2018-06-28T07:41:52.781Z,3.62
2018-06-28T07:44:20.592Z,3.75
2018-06-28T07:46:48.479Z,4.55
2018-06-28T07:49:16.256Z,4.65
2018-06-28T07:51:44.335Z,4.30
2018-06-28T07:54:12.301Z,4.58
2018-06-28T07:56:40.182Z,3.90
2018-06-28T07:59:08.010Z,3.50
2018-06-28T08:01:35.766Z,4.40
2018-06-28T08:04:03.560Z,3.92
2018-06-28T08:06:31.427Z,4.60
2018-06-28T08:08:59.154Z,4.08
2018-06-28T08:11:26.898Z,3.55
2018-06-28T08:13:54.634Z,4.37
2018-06-28T08:16:22.443Z,3.40
2018-06-28T08:18:50.321Z,4.30
2018-06-28T08:21:18.103Z,4.33
2018-06-28T08:23:45.910Z,5.12
2018-06-28T08:26:13.683Z,3.50
2018-06-28T08:28:41.575Z,3.33
2018-06-28T08:31:09.395Z,3.55
2018-06-28T08:33:37.239Z,3.02
2018-06-28T08:36:05.107Z,3.27
2018-06-28T08:38:32.861Z,3.10
2018-06-28T08:41:00.622Z,3.17
2018-06-28T08:43:28.423Z,3.37
2018-06-28T08:45:56.272Z,2.70
2018-06-28T08:48:24.062Z,3.27
2018-06-28T08:53:26.306Z,3.10
2018-06-28T08:55:54.345Z,2.90
2018-06-28T08:58:22.529Z,2.95
2018-06-28T09:00:50.400Z,2.80
2018-06-28T09:03:18.162Z,2.72
2018-06-28T09:05:46.024Z,3.20
2018-06-28T09:08:13.878Z,2.80
2018-06-28T09:10:41.718Z,3.55
2018-06-28T09:13:09.642Z,2.90
2018-06-28T09:15:37.431Z,2.80
2018-06-28T09:18:05.206Z,2.87
2018-06-28T09:20:33.036Z,2.58
2018-06-28T09:23:00.900Z,2.87
2018-06-28T09:25:28.783Z,2.90
2018-06-28T09:27:56.684Z,3.52
2018-06-28T09:30:24.591Z,3.30
2018-06-28T09:32:52.370Z,3.30
2018-06-28T09:35:20.216Z,3.33
2018-06-28T09:37:48.087Z,3.17
2018-06-28T09:40:16.012Z,3.42
2018-06-28T09:42:43.897Z,3.12
2018-06-28T09:45:11.794Z,2.95
2018-06-28T09:47:39.722Z,3.37
2018-06-28T09:50:07.670Z,3.52
2018-06-28T09:52:35.520Z,3.30
2018-06-28T09:55:03.494Z,3.08
2018-06-28T09:57:31.503Z,3.22
2018-06-28T09:59:59.342Z,3.37
2018-06-28T10:02:27.235Z,3.52
2018-06-28T10:04:55.017Z,3.75
2018-06-28T10:07:22.814Z,3.80
2018-06-28T10:09:50.666Z,3.50
2018-06-28T10:12:18.526Z,4.08
2018-06-28T10:14:46.292Z,4.03
2018-06-28T10:17:14.010Z,3.65
2018-06-28T10:19:41.875Z,4.22
2018-06-28T10:22:09.739Z,4.22
2018-06-28T10:24:37.577Z,3.80
2018-06-28T10:27:05.522Z,3.83
2018-06-28T10:29:33.342Z,4.22
2018-06-28T10:32:01.154Z,4.08
2018-06-28T10:34:29.097Z,4.05
2018-06-28T10:36:56.964Z,3.80
2018-06-28T10:39:24.814Z,4.08
2018-06-28T10:41:52.756Z,3.72
2018-06-28T10:44:20.551Z,3.85
2018-06-28T10:46:52.660Z,4.30
2018-06-28T10:49:20.565Z,3.85
2018-06-28T10:51:48.387Z,4.35
2018-06-28T10:54:16.209Z,3.75
2018-06-28T10:56:43.971Z,4.17
2018-06-28T10:59:11.855Z,3.98
2018-06-28T11:01:39.732Z,4.05
2018-06-28T11:04:07.599Z,4.37
2018-06-28T11:06:35.430Z,3.55
2018-06-28T11:09:05.703Z,4.50
2018-06-28T11:11:33.601Z,4.00
2018-06-28T11:14:01.353Z,4.12
2018-06-28T11:16:29.323Z,3.98
2018-06-28T11:18:57.234Z,3.67
2018-06-28T11:21:25.103Z,3.70
2018-06-28T11:23:52.954Z,3.62
2018-06-28T11:26:20.897Z,3.70
2018-06-28T11:28:48.798Z,4.00
2018-06-28T11:31:16.573Z,3.50
2018-06-28T11:33:44.553Z,3.22
2018-06-28T11:36:12.453Z,3.50
2018-06-28T11:38:40.387Z,3.50
2018-06-28T11:41:08.140Z,4.85
2018-06-28T11:43:36.022Z,3.65
2018-06-28T11:46:03.883Z,3.37
2018-06-28T11:48:31.670Z,3.37
2018-06-28T11:50:59.267Z,3.00
2018-06-28T11:53:26.848Z,2.87
2018-06-28T11:55:54.477Z,3.08
2018-06-28T11:58:22.070Z,3.27
2018-06-28T12:00:49.678Z,3.42
2018-06-28T12:03:17.271Z,2.87
2018-06-28T12:05:44.839Z,3.08
2018-06-28T12:08:12.494Z,3.45
2018-06-28T12:10:40.116Z,3.15
2018-06-28T12:13:07.730Z,3.20
2018-06-28T12:15:35.281Z,3.40
2018-06-28T12:18:02.944Z,3.60
2018-06-28T12:20:30.848Z,3.33
2018-06-28T12:22:58.493Z,3.30
2018-06-28T12:25:26.117Z,3.02
2018-06-28T12:27:53.705Z,3.20
2018-06-28T12:30:21.362Z,2.70
2018-06-28T12:32:49.022Z,3.40
2018-06-28T12:35:16.616Z,2.90
2018-06-28T12:37:44.285Z,2.90
2018-06-28T12:40:11.893Z,3.10
2018-06-28T12:42:39.527Z,3.35
2018-06-28T12:45:07.160Z,3.02
2018-06-28T12:47:48.441Z,2.90
2018-06-28T12:50:16.086Z,3.20
2018-06-28T12:52:50.057Z,3.20
2018-06-28T12:55:18.706Z,3.17
2018-06-28T12:57:46.845Z,3.35
2018-06-28T13:00:15.451Z,2.70
2018-06-28T13:02:43.396Z,2.80
2018-06-28T13:05:12.013Z,3.45
2018-06-28T13:07:39.628Z,2.77
2018-06-28T13:10:08.821Z,2.42
2018-06-28T13:12:36.811Z,2.92
2018-06-28T13:15:05.084Z,3.22
2018-06-28T13:17:32.691Z,2.77
2018-06-28T13:20:00.411Z,3.10
2018-06-28T13:22:28.112Z,2.80
2018-06-28T13:24:55.704Z,2.58
2018-06-28T13:27:23.286Z,2.67
2018-06-28T13:29:50.857Z,2.60
2018-06-28T13:32:18.413Z,2.30
2018-06-28T13:34:46.177Z,2.27
2018-06-28T13:37:13.925Z,2.25
2018-06-28T13:39:41.529Z,2.50
2018-06-28T13:42:09.498Z,2.47
2018-06-28T13:44:36.927Z,2.83
2018-06-28T13:47:04.821Z,2.25
2018-06-28T13:49:32.481Z,2.20
2018-06-28T13:52:00.221Z,2.20
2018-06-28T13:54:27.980Z,2.20
2018-06-28T13:56:55.667Z,2.33
2018-06-28T13:59:23.299Z,2.20
2018-06-28T14:01:51.134Z,2.05
2018-06-28T14:04:18.766Z,2.50
2018-06-28T14:06:46.329Z,2.60
2018-06-28T14:09:13.945Z,2.37
2018-06-28T14:11:41.813Z,2.15
2018-06-28T14:14:09.446Z,2.65
2018-06-28T14:16:37.144Z,2.80
2018-06-28T14:19:04.778Z,2.00
2018-06-28T14:21:32.394Z,2.30
2018-06-28T14:24:00.000Z,2.75
2018-06-28T14:26:27.634Z,2.85
2018-06-28T14:28:55.238Z,2.58
2018-06-28T14:31:22.864Z,2.42
2018-06-28T14:33:50.481Z,2.40
2018-06-28T14:36:18.113Z,2.37
2018-06-28T14:38:45.794Z,2.55
2018-06-28T14:41:19.926Z,2.60
2018-06-28T14:43:47.486Z,2.20
2018-06-28T14:46:15.097Z,2.12
2018-06-28T14:48:42.645Z,2.10
2018-06-28T14:51:10.267Z,2.33
2018-06-28T14:53:37.921Z,3.10
2018-06-28T14:56:05.617Z,2.10
2018-06-28T14:58:33.207Z,2.30
2018-06-28T15:01:00.825Z,2.35
2018-06-28T15:03:28.661Z,2.40
2018-06-28T15:05:56.283Z,2.45
2018-06-28T15:08:23.907Z,2.60
2018-06-28T15:10:51.529Z,1.95
2018-06-28T15:13:19.133Z,2.30
2018-06-28T15:15:46.716Z,2.12
2018-06-28T15:18:14.293Z,2.40
2018-06-28T15:20:41.881Z,2.30
2018-06-28T15:23:09.483Z,2.40
2018-06-28T15:25:37.134Z,2.20
2018-06-28T15:28:04.781Z,2.25
2018-06-28T15:30:32.422Z,2.00
2018-06-28T15:33:00.178Z,2.27
2018-06-28T15:35:27.897Z,2.42
2018-06-28T15:37:55.614Z,2.00
2018-06-28T15:40:23.262Z,2.20
2018-06-28T15:42:50.872Z,2.25
2018-06-28T15:45:18.503Z,1.87
2018-06-28T15:47:46.161Z,2.25
2018-06-28T15:50:13.776Z,2.20
2018-06-28T15:52:41.265Z,2.08
2018-06-28T15:55:08.894Z,2.70
2018-06-28T15:57:36.569Z,2.15
2018-06-28T16:00:05.089Z,2.22
2018-06-28T16:02:32.735Z,2.40
2018-06-28T16:05:00.429Z,1.90
2018-06-28T16:07:28.083Z,2.00
2018-06-28T16:09:55.729Z,1.95
2018-06-28T16:12:23.383Z,2.20
2018-06-28T16:14:51.065Z,2.27
2018-06-28T16:17:18.658Z,2.87
2018-06-28T16:19:46.259Z,2.02
2018-06-28T16:22:13.885Z,2.20
2018-06-28T16:24:41.490Z,2.20
2018-06-28T16:27:09.095Z,2.03
2018-06-28T16:29:36.698Z,2.30
2018-06-28T16:32:05.137Z,1.90
2018-06-28T16:34:32.748Z,2.23
2018-06-28T16:37:00.443Z,2.57
2018-06-28T16:39:28.129Z,2.30
2018-06-28T16:41:55.929Z,2.20
2018-06-28T16:44:23.581Z,2.50
2018-06-28T16:46:51.246Z,2.30
2018-06-28T16:49:18.854Z,2.10
2018-06-28T16:51:46.469Z,2.43
2018-06-28T16:54:14.084Z,2.10
2018-06-28T16:56:41.756Z,2.60
2018-06-28T16:59:09.386Z,2.47
2018-06-28T17:01:37.128Z,2.17
2018-06-28T17:04:04.968Z,1.93
2018-06-28T17:06:32.740Z,2.07
2018-06-28T17:09:00.390Z,2.23
2018-06-28T17:11:28.066Z,2.47
2018-06-28T17:13:55.689Z,2.00
2018-06-28T17:16:23.285Z,2.43
2018-06-28T17:18:51.790Z,2.33
2018-06-28T17:21:19.401Z,2.50
2018-06-28T17:23:46.994Z,2.40
2018-06-28T17:26:14.629Z,2.30
2018-06-28T17:28:42.185Z,2.57
2018-06-28T17:31:09.805Z,2.30
2018-06-28T17:33:37.381Z,2.20
2018-06-28T17:36:04.993Z,2.43
2018-06-28T17:38:32.580Z,2.23
2018-06-28T17:41:00.294Z,2.50
2018-06-28T17:43:27.922Z,2.13
2018-06-28T17:45:55.627Z,2.40
2018-06-28T17:48:23.253Z,2.53
2018-06-28T17:50:50.869Z,2.40
2018-06-28T17:53:18.479Z,2.50
2018-06-28T17:55:46.085Z,2.60
2018-06-28T17:58:13.742Z,2.13
2018-06-28T18:00:41.353Z,2.30
2018-06-28T18:03:08.975Z,2.17
2018-06-28T18:05:36.589Z,2.30
2018-06-28T18:08:04.186Z,1.90
2018-06-28T18:10:31.802Z,1.97
2018-06-28T18:12:59.368Z,1.90
2018-06-28T18:15:26.970Z,2.00
2018-06-28T18:17:54.547Z,2.07
2018-06-28T18:20:22.168Z,2.20
2018-06-28T18:22:49.805Z,2.13
2018-06-28T18:25:17.423Z,2.33
2018-06-28T18:27:45.023Z,2.53
2018-06-28T18:30:12.650Z,2.43
2018-06-28T18:32:40.320Z,2.20
2018-06-28T18:35:08.005Z,2.23
2018-06-28T18:37:35.616Z,1.83
2018-06-28T18:40:03.917Z,2.30
2018-06-28T18:42:38.146Z,2.10
2018-06-28T18:45:05.910Z,2.40
2018-06-28T18:47:33.529Z,2.03
2018-06-28T18:50:01.150Z,2.10
2018-06-28T18:52:28.738Z,2.33
2018-06-28T18:54:56.520Z,1.53
2018-06-28T18:57:24.203Z,1.93
2018-06-28T18:59:51.815Z,2.03
2018-06-28T19:02:19.426Z,2.27
2018-06-28T19:04:47.280Z,1.83
2018-06-28T19:07:14.903Z,2.10
2018-06-28T19:09:48.522Z,2.10
2018-06-28T19:12:16.165Z,2.33
2018-06-28T19:14:49.488Z,1.90
2018-06-28T19:17:17.130Z,1.90
2018-06-28T19:19:44.760Z,2.20
2018-06-28T19:22:18.106Z,2.10
2018-06-28T19:24:45.767Z,2.00
2018-06-28T19:27:13.393Z,1.80
2018-06-28T19:29:46.838Z,2.67
2018-06-28T19:32:20.049Z,2.13
2018-06-28T19:34:47.977Z,2.13
2018-06-28T19:37:21.208Z,1.70
2018-06-28T19:39:54.403Z,2.10
2018-06-28T19:42:27.700Z,2.27
2018-06-28T19:44:55.480Z,2.40
2018-06-28T19:47:23.136Z,2.33
2018-06-28T19:49:56.455Z,2.93
2018-06-28T19:52:29.742Z,2.00
2018-06-28T19:54:57.453Z,3.27
2018-06-28T19:57:32.847Z,2.73
2018-06-28T20:00:00.657Z,2.60
2018-06-28T20:02:33.850Z,2.60
2018-06-28T20:05:01.705Z,2.70
2018-06-28T20:07:29.157Z,2.17
2018-06-28T20:09:56.957Z,1.87
2018-06-28T20:12:30.179Z,2.70
2018-06-28T20:15:03.317Z,2.90
2018-06-28T20:17:36.528Z,2.43
2018-06-28T20:20:09.960Z,2.10
2018-06-28T20:22:37.743Z,2.23
2018-06-28T20:25:05.410Z,2.57
2018-06-28T20:28:37.249Z,2.87
2018-06-28T20:31:10.533Z,2.53
2018-06-28T20:33:43.844Z,2.87
2018-06-28T20:36:11.516Z,2.90
2018-06-28T20:38:39.209Z,2.37
2018-06-28T20:41:06.887Z,2.77
2018-06-28T20:43:34.574Z,2.27
2018-06-28T20:46:02.321Z,3.10
2018-06-28T20:48:29.997Z,3.40
2018-06-28T20:50:57.705Z,2.70
2018-06-28T20:53:25.349Z,2.90
2018-06-28T20:55:53.049Z,2.30
2018-06-28T20:58:20.733Z,2.47
2018-06-28T21:00:48.510Z,2.37
2018-06-28T21:03:16.135Z,2.13
2018-06-28T21:05:43.762Z,2.17
2018-06-28T21:08:11.410Z,2.50
2018-06-28T21:10:39.037Z,2.40
2018-06-28T21:13:06.686Z,2.40
2018-06-28T21:15:34.330Z,2.37
2018-06-28T21:18:02.000Z,2.47
2018-06-28T21:20:29.682Z,2.50
2018-06-28T21:22:57.401Z,2.30
2018-06-28T21:25:25.099Z,2.80
2018-06-28T21:27:52.766Z,2.20
2018-06-28T21:30:24.271Z,2.13
2018-06-28T21:32:51.889Z,2.20
2018-06-28T21:35:19.555Z,1.93
2018-06-28T21:37:47.134Z,1.93
2018-06-28T21:40:14.834Z,2.47
2018-06-28T21:42:42.455Z,2.20
2018-06-28T21:45:10.158Z,2.33
2018-06-28T21:47:37.759Z,1.90
2018-06-28T21:50:05.428Z,2.17
2018-06-28T21:52:33.005Z,1.90
2018-06-28T21:55:00.583Z,2.10
2018-06-28T21:57:28.224Z,2.13
2018-06-28T21:59:55.848Z,2.20
2018-06-28T22:02:23.518Z,2.60
2018-06-28T22:04:51.157Z,2.07
2018-06-28T22:07:18.765Z,1.83
2018-06-28T22:09:46.307Z,2.10
2018-06-28T22:12:13.910Z,2.43
2018-06-28T22:14:41.526Z,2.20
2018-06-28T22:17:09.142Z,1.87
2018-06-28T22:19:36.756Z,1.70
2018-06-28T22:22:04.358Z,2.03
2018-06-28T22:24:38.694Z,1.60
2018-06-28T22:27:06.282Z,2.10
2018-06-28T22:29:33.909Z,1.47
2018-06-28T22:32:01.386Z,1.67
2018-06-28T22:34:28.977Z,2.40
2018-06-28T22:36:56.602Z,1.43
2018-06-28T22:39:24.204Z,1.70
2018-06-28T22:41:51.761Z,1.90
2018-06-28T22:44:19.328Z,1.40
2018-06-28T22:46:46.942Z,1.70
2018-06-28T22:49:14.570Z,1.30
2018-06-28T22:51:42.140Z,1.60
2018-06-28T22:54:09.729Z,1.77
2018-06-28T22:56:37.311Z,1.60
2018-06-28T22:59:04.871Z,1.80
2018-06-28T23:01:32.542Z,1.90
2018-06-28T23:04:00.154Z,1.60
2018-06-28T23:06:27.793Z,1.40
2018-06-28T23:08:55.358Z,1.80
2018-06-28T23:11:23.052Z,1.70
2018-06-28T23:13:50.849Z,1.63
2018-06-28T23:16:18.431Z,1.50
2018-06-28T23:18:46.029Z,1.67
2018-06-28T23:21:13.611Z,1.70
2018-06-28T23:23:41.311Z,1.67
2018-06-28T23:26:08.761Z,1.50
2018-06-28T23:28:36.380Z,1.60
2018-06-28T23:31:03.974Z,1.53
2018-06-28T23:33:31.533Z,1.80
2018-06-28T23:35:59.126Z,1.80
2018-06-28T23:38:26.614Z,1.90
2018-06-28T23:40:54.185Z,1.70
2018-06-28T23:43:21.746Z,1.60
2018-06-28T23:45:49.332Z,1.80
2018-06-28T23:48:16.893Z,1.90
2018-06-28T23:50:44.477Z,1.67
2018-06-28T23:53:12.074Z,1.77
2018-06-28T23:55:39.662Z,1.40
2018-06-28T23:58:07.243Z,1.60
